createdAt,value
2022-12-22T00:00:11.436Z,99897.36
2022-12-22T00:04:20.246Z,99895.92
2022-12-22T00:08:05.998Z,99903.67
2022-12-22T00:11:51.331Z,99905.23
2022-12-22T00:15:37.303Z,99895.46
2022-12-22T00:19:31.047Z,99890.41
2022-12-22T00:23:16.521Z,99891.30
2022-12-22T00:27:02.222Z,99895.21
2022-12-22T00:30:48.356Z,99893.84
2022-12-22T00:34:39.080Z,99894.11
2022-12-22T00:38:33.018Z,99890.34
2022-12-22T00:42:19.656Z,99887.91
2022-12-22T00:46:03.972Z,99892.91
2022-12-22T00:49:49.563Z,99905.77
2022-12-22T00:53:35.569Z,99908.48
2022-12-22T00:57:20.850Z,99906.60
2022-12-22T01:01:05.681Z,99903.54
2022-12-22T01:04:50.350Z,99909.37
2022-12-22T01:08:34.762Z,99908.23
2022-12-22T01:12:19.269Z,99907.02
2022-12-22T01:16:03.500Z,99908.41
2022-12-22T01:19:47.600Z,99898.88
2022-12-22T01:23:32.451Z,99884.98
2022-12-22T01:27:17.147Z,99883.11
2022-12-22T01:31:02.568Z,99880.45
2022-12-22T01:34:46.836Z,99882.10
2022-12-22T01:38:31.440Z,99886.20
2022-12-22T01:42:15.837Z,99874.02
2022-12-22T01:46:00.559Z,99872.95
2022-12-22T01:49:49.811Z,99871.25
2022-12-22T01:53:39.891Z,99874.42
2022-12-22T01:57:25.016Z,99874.01
2022-12-22T02:01:09.328Z,99868.95
2022-12-22T02:05:03.219Z,99871.65
2022-12-22T02:08:52.439Z,99860.19
2022-12-22T02:12:44.443Z,99861.17
2022-12-22T02:16:34.738Z,99856.23
2022-12-22T02:20:48.952Z,99849.44
2022-12-22T02:24:48.445Z,99850.86
2022-12-22T02:28:34.299Z,99854.88
2022-12-22T02:32:18.743Z,99857.55
2022-12-22T02:36:18.648Z,99854.56
2022-12-22T02:40:11.681Z,99862.80
2022-12-22T02:44:12.277Z,99861.55
2022-12-22T02:48:02.945Z,99852.27
2022-12-22T02:51:50.563Z,99843.89
2022-12-22T02:55:36.452Z,99844.16
2022-12-22T02:59:21.107Z,99840.43
2022-12-22T03:03:06.355Z,99841.53
2022-12-22T03:06:50.999Z,99843.65
2022-12-22T03:10:35.765Z,99834.55
2022-12-22T03:14:20.131Z,99843.08
2022-12-22T03:18:04.847Z,99836.29
2022-12-22T03:21:49.325Z,99837.56
2022-12-22T03:25:34.132Z,99836.04
2022-12-22T03:29:00.739Z,99833.60
2022-12-22T03:32:27.214Z,99838.25
2022-12-22T03:35:54.299Z,99836.48
2022-12-22T03:39:20.584Z,99842.04
2022-12-22T03:43:05.283Z,99837.27
2022-12-22T03:46:32.384Z,99831.73
2022-12-22T03:49:59.523Z,99828.78
2022-12-22T03:53:26.455Z,99816.24
2022-12-22T03:56:54.180Z,99813.41
2022-12-22T04:00:21.933Z,99811.96
2022-12-22T04:03:49.601Z,99802.33
2022-12-22T04:07:16.789Z,99802.08
2022-12-22T04:11:01.268Z,99799.65
2022-12-22T04:14:33.386Z,99799.43
2022-12-22T04:18:01.917Z,99803.36
2022-12-22T04:21:29.038Z,99795.81
2022-12-22T04:24:56.075Z,99793.27
2022-12-22T04:28:23.068Z,99797.47
2022-12-22T04:31:50.126Z,99804.60
2022-12-22T04:35:16.830Z,99801.40
2022-12-22T04:38:43.325Z,99799.22
2022-12-22T04:42:10.127Z,99793.96
2022-12-22T04:45:37.124Z,99794.73
2022-12-22T04:49:03.926Z,99794.04
2022-12-22T04:52:31.168Z,99785.48
2022-12-22T04:56:00.948Z,99792.30
2022-12-22T04:59:27.963Z,99789.56
2022-12-22T05:02:55.454Z,99781.21
2022-12-22T05:06:22.769Z,99786.59
2022-12-22T05:09:49.824Z,99792.69
2022-12-22T05:13:17.015Z,99786.19
2022-12-22T05:16:44.076Z,99777.89
2022-12-22T05:20:12.665Z,99777.01
2022-12-22T05:23:39.542Z,99787.23
2022-12-22T05:27:06.111Z,99782.52
2022-12-22T05:30:33.242Z,99778.91
2022-12-22T05:33:59.645Z,99780.33
2022-12-22T05:37:26.360Z,99774.14
2022-12-22T05:40:56.808Z,99774.98
2022-12-22T05:44:26.628Z,99770.30
2022-12-22T05:47:54.285Z,99765.60
2022-12-22T05:51:22.057Z,99767.11
2022-12-22T05:54:49.071Z,99770.00
2022-12-22T05:58:16.845Z,99761.08
2022-12-22T06:01:43.481Z,99757.42
2022-12-22T06:05:12.218Z,99760.06
2022-12-22T06:08:39.546Z,99757.50
2022-12-22T06:12:06.965Z,99761.63
2022-12-22T06:15:33.565Z,99757.98
2022-12-22T06:19:00.706Z,99760.55
2022-12-22T06:22:27.367Z,99761.38
2022-12-22T06:26:02.444Z,99760.59
2022-12-22T06:29:28.997Z,99757.69
2022-12-22T06:32:55.701Z,99759.23
2022-12-22T06:36:22.513Z,99763.93
2022-12-22T06:39:49.235Z,99764.29
2022-12-22T06:43:17.176Z,99767.89
2022-12-22T06:46:44.170Z,99768.56
2022-12-22T06:50:12.492Z,99765.55
2022-12-22T06:53:39.332Z,99763.94
2022-12-22T06:57:06.375Z,99763.30
2022-12-22T07:00:33.842Z,99765.39
2022-12-22T07:04:00.772Z,99762.87
2022-12-22T07:07:27.719Z,99760.80
2022-12-22T07:11:00.908Z,99753.14
2022-12-22T07:14:27.435Z,99753.97
2022-12-22T07:17:56.264Z,99762.77
2022-12-22T07:21:22.969Z,99762.20
2022-12-22T07:24:50.735Z,99754.95
2022-12-22T07:28:20.997Z,99753.83
2022-12-22T07:31:48.153Z,99750.89
2022-12-22T07:35:15.423Z,99743.75
2022-12-22T07:38:44.180Z,99743.81
2022-12-22T07:42:31.575Z,99748.91
2022-12-22T07:45:58.213Z,99747.70
2022-12-22T07:49:42.518Z,99743.32
2022-12-22T07:53:09.425Z,99743.02
2022-12-22T07:56:38.675Z,99737.95
2022-12-22T08:00:06.241Z,99730.13
2022-12-22T08:03:38.705Z,99721.89
2022-12-22T08:07:05.685Z,99712.86
2022-12-22T08:10:33.245Z,99702.77
2022-12-22T08:14:01.900Z,99695.86
2022-12-22T08:17:29.895Z,99693.23
2022-12-22T08:20:56.648Z,99687.41
2022-12-22T08:24:25.428Z,99680.61
2022-12-22T08:27:55.827Z,99677.64
2022-12-22T08:31:23.849Z,99674.45
2022-12-22T08:34:52.153Z,99678.17
2022-12-22T08:38:19.466Z,99671.88
2022-12-22T08:41:52.172Z,99664.71
2022-12-22T08:45:19.027Z,99668.20
2022-12-22T08:48:46.271Z,99658.45
2022-12-22T08:52:18.397Z,99659.02
2022-12-22T08:55:54.569Z,99653.52
2022-12-22T08:59:24.616Z,99654.69
2022-12-22T09:02:52.453Z,99652.77
2022-12-22T09:06:21.508Z,99643.77
2022-12-22T09:09:54.917Z,99640.41
2022-12-22T09:13:21.424Z,99634.91
2022-12-22T09:16:48.468Z,99622.83
2022-12-22T09:20:16.750Z,99617.95
2022-12-22T09:23:43.646Z,99607.72
2022-12-22T09:27:10.669Z,99600.76
2022-12-22T09:30:37.446Z,99601.44
2022-12-22T09:34:04.020Z,99600.61
2022-12-22T09:37:30.644Z,99600.05
2022-12-22T09:40:57.453Z,99599.39
2022-12-22T09:44:28.023Z,99587.10
2022-12-22T09:47:56.622Z,99578.86
2022-12-22T09:51:27.437Z,99568.45
2022-12-22T09:54:54.788Z,99563.05
2022-12-22T09:58:26.961Z,99552.85
2022-12-22T10:02:05.326Z,99552.23
2022-12-22T10:05:41.363Z,99544.90
2022-12-22T10:09:47.741Z,99537.54
2022-12-22T10:13:07.772Z,99533.92
2022-12-22T10:16:34.532Z,99527.20
2022-12-22T10:20:25.673Z,99526.72
2022-12-22T10:23:52.616Z,99523.54
2022-12-22T10:27:25.807Z,99534.02
2022-12-22T10:31:13.985Z,99531.33
2022-12-22T10:34:45.793Z,99534.32
2022-12-22T10:38:23.116Z,99528.42
2022-12-22T10:41:56.956Z,99522.38
2022-12-22T10:45:28.477Z,99519.17
2022-12-22T10:49:10.156Z,99506.98
2022-12-22T10:52:37.937Z,99493.61
2022-12-22T10:56:18.609Z,99488.40
2022-12-22T10:59:52.456Z,99478.25
2022-12-22T11:03:32.807Z,99477.50
2022-12-22T11:07:02.199Z,99472.84
2022-12-22T11:10:40.008Z,99468.46
2022-12-22T11:14:15.908Z,99472.38
2022-12-22T11:17:54.658Z,99464.02
2022-12-22T11:21:29.652Z,99458.44
2022-12-22T11:25:17.019Z,99455.55
2022-12-22T11:28:56.305Z,99446.98
2022-12-22T11:32:43.435Z,99447.03
2022-12-22T11:36:17.158Z,99436.61
2022-12-22T11:39:53.014Z,99433.70
2022-12-22T11:43:35.339Z,99424.23
2022-12-22T11:47:12.930Z,99417.04
2022-12-22T11:50:58.199Z,99408.16
2022-12-22T11:54:59.304Z,99410.02
2022-12-22T11:58:43.785Z,99400.79
2022-12-22T12:02:44.192Z,99398.45
2022-12-22T12:07:00.171Z,99399.77
2022-12-22T12:10:30.542Z,99397.36
2022-12-22T12:14:12.636Z,99395.14
2022-12-22T12:17:52.487Z,99392.67
2022-12-22T12:21:29.834Z,99390.80
2022-12-22T12:25:13.496Z,99385.19
2022-12-22T12:28:53.882Z,99384.98
2022-12-22T12:32:27.406Z,99382.33
2022-12-22T12:36:03.250Z,99377.14
2022-12-22T12:39:40.895Z,99374.67
2022-12-22T12:43:15.951Z,99372.17
2022-12-22T12:47:10.171Z,99365.66
2022-12-22T12:50:38.873Z,99358.77
2022-12-22T12:54:37.502Z,99361.13
2022-12-22T12:58:07.921Z,99351.39
2022-12-22T13:02:02.169Z,99347.82
2022-12-22T13:05:36.959Z,99343.80
2022-12-22T13:09:49.336Z,99338.36
2022-12-22T13:13:11.452Z,99337.41
2022-12-22T13:16:40.754Z,99332.13
2022-12-22T13:20:15.795Z,99332.98
2022-12-22T13:24:22.340Z,99327.84
2022-12-22T13:27:34.693Z,99327.36
2022-12-22T13:31:05.425Z,99320.39
2022-12-22T13:35:20.633Z,99319.20
2022-12-22T13:38:36.290Z,99316.15
2022-12-22T13:42:02.975Z,99317.12
2022-12-22T13:45:36.196Z,99313.30
2022-12-22T13:49:05.146Z,99311.03
2022-12-22T13:52:32.295Z,99303.79
2022-12-22T13:56:01.202Z,99306.02
2022-12-22T13:59:35.068Z,99301.71
2022-12-22T14:03:01.528Z,99303.05
2022-12-22T14:06:33.846Z,99300.74
2022-12-22T14:10:01.211Z,99292.42
2022-12-22T14:13:34.858Z,99291.38
2022-12-22T14:17:07.028Z,99292.20
2022-12-22T14:20:40.485Z,99289.86
2022-12-22T14:24:08.367Z,99293.80
2022-12-22T14:27:43.914Z,99292.39
2022-12-22T14:31:13.938Z,99290.67
2022-12-22T14:34:41.173Z,99284.86
2022-12-22T14:38:27.628Z,99281.79
2022-12-22T14:41:57.236Z,99282.16
2022-12-22T14:45:26.856Z,99280.36
2022-12-22T14:48:53.588Z,99277.73
2022-12-22T14:52:33.800Z,99279.09
2022-12-22T14:56:00.848Z,99278.92
2022-12-22T14:59:31.508Z,99276.86
2022-12-22T15:03:02.201Z,99273.45
2022-12-22T15:06:40.826Z,99268.99
2022-12-22T15:10:16.374Z,99272.44
2022-12-22T15:13:46.588Z,99272.91
2022-12-22T15:17:26.241Z,99270.02
2022-12-22T15:20:58.100Z,99270.37
2022-12-22T15:24:25.596Z,99270.10
2022-12-22T15:27:53.777Z,99270.84
2022-12-22T15:31:25.375Z,99265.38
2022-12-22T15:34:55.153Z,99264.13
2022-12-22T15:38:23.690Z,99261.45
2022-12-22T15:41:51.920Z,99258.54
2022-12-22T15:45:24.074Z,99254.71
2022-12-22T15:48:54.127Z,99256.58
2022-12-22T15:52:21.052Z,99253.73
2022-12-22T15:55:51.817Z,99254.02
2022-12-22T15:59:24.159Z,99251.48
2022-12-22T16:02:51.181Z,99251.71
2022-12-22T16:06:20.833Z,99250.23
2022-12-22T16:09:50.379Z,99244.20
2022-12-22T16:13:26.856Z,99246.33
2022-12-22T16:16:53.866Z,99245.94
2022-12-22T16:20:21.792Z,99243.31
2022-12-22T16:23:52.676Z,99239.79
2022-12-22T16:27:19.887Z,99235.42
2022-12-22T16:30:48.793Z,99237.42
2022-12-22T16:34:16.166Z,99236.48
2022-12-22T16:37:45.267Z,99236.39
2022-12-22T16:41:21.986Z,99240.65
2022-12-22T16:44:51.798Z,99231.70
2022-12-22T16:48:21.671Z,99231.65
2022-12-22T16:51:52.561Z,99229.73
2022-12-22T16:55:21.586Z,99226.34
2022-12-22T16:58:49.443Z,99225.33
2022-12-22T17:02:29.781Z,99218.10
2022-12-22T17:06:01.979Z,99219.02
2022-12-22T17:09:32.755Z,99220.01
2022-12-22T17:13:02.687Z,99220.60
2022-12-22T17:16:30.093Z,99220.67
2022-12-22T17:19:59.166Z,99224.09
2022-12-22T17:23:36.869Z,99223.88
2022-12-22T17:27:08.795Z,99219.15
2022-12-22T17:30:42.545Z,99216.34
2022-12-22T17:34:17.666Z,99211.64
2022-12-22T17:37:45.648Z,99211.23
2022-12-22T17:41:15.672Z,99206.57
2022-12-22T17:44:44.631Z,99209.96
2022-12-22T17:48:14.268Z,99213.73
2022-12-22T17:51:45.671Z,99212.07
2022-12-22T17:56:01.335Z,99210.19
2022-12-22T17:59:14.090Z,99208.33
2022-12-22T18:02:41.039Z,99208.09
2022-12-22T18:06:12.894Z,99204.42
2022-12-22T18:09:44.384Z,99206.93
2022-12-22T18:13:18.991Z,99199.52
2022-12-22T18:16:46.792Z,99203.18
2022-12-22T18:20:18.168Z,99204.78
2022-12-22T18:23:49.842Z,99207.11
2022-12-22T18:27:18.327Z,99207.17
2022-12-22T18:30:46.323Z,99204.06
2022-12-22T18:34:14.607Z,99200.26
2022-12-22T18:37:42.305Z,99205.05
2022-12-22T18:41:18.752Z,99204.36
2022-12-22T18:44:46.255Z,99205.63
2022-12-22T18:48:15.298Z,99206.29
2022-12-22T18:51:44.424Z,99209.28
2022-12-22T18:55:19.691Z,99208.15
2022-12-22T18:58:47.559Z,99206.27
2022-12-22T19:02:25.819Z,99208.73
2022-12-22T19:05:54.551Z,99208.23
2022-12-22T19:09:23.689Z,99205.48
2022-12-22T19:12:58.703Z,99205.35
2022-12-22T19:16:29.157Z,99204.88
2022-12-22T19:19:57.783Z,99211.80
2022-12-22T19:23:26.723Z,99209.26
2022-12-22T19:26:53.920Z,99215.14
2022-12-22T19:30:23.815Z,99216.73
2022-12-22T19:33:51.862Z,99221.64
2022-12-22T19:37:18.740Z,99227.96
2022-12-22T19:40:45.913Z,99225.71
2022-12-22T19:44:25.962Z,99231.34
2022-12-22T19:47:55.062Z,99230.10
2022-12-22T19:51:23.746Z,99236.48
2022-12-22T19:54:58.092Z,99232.84
2022-12-22T19:58:30.430Z,99231.24
2022-12-22T20:02:01.350Z,99233.98
2022-12-22T20:05:33.057Z,99235.34
2022-12-22T20:09:03.602Z,99236.36
2022-12-22T20:12:36.721Z,99235.55
2022-12-22T20:16:05.938Z,99244.69
2022-12-22T20:19:43.712Z,99247.22
2022-12-22T20:23:22.130Z,99252.09
2022-12-22T20:26:54.638Z,99255.11
2022-12-22T20:30:24.180Z,99257.33
2022-12-22T20:33:55.193Z,99256.55
2022-12-22T20:37:23.254Z,99254.05
2022-12-22T20:40:52.768Z,99252.30
2022-12-22T20:44:33.182Z,99253.79
2022-12-22T20:48:02.297Z,99251.60
2022-12-22T20:51:34.759Z,99252.40
2022-12-22T20:55:02.833Z,99254.32
2022-12-22T20:58:35.177Z,99255.33
2022-12-22T21:02:02.054Z,99264.30
2022-12-22T21:05:29.467Z,99261.28
2022-12-22T21:08:58.946Z,99260.30
2022-12-22T21:12:27.219Z,99251.15
2022-12-22T21:15:55.190Z,99247.85
2022-12-22T21:19:23.585Z,99255.25
2022-12-22T21:22:53.075Z,99252.96
2022-12-22T21:26:26.696Z,99263.08
2022-12-22T21:29:52.358Z,99286.59
2022-12-22T21:33:20.790Z,99285.66
2022-12-22T21:36:55.782Z,99283.86
2022-12-22T21:40:26.556Z,99285.33
2022-12-22T21:43:55.293Z,99292.05
2022-12-22T21:47:22.744Z,99296.98
2022-12-22T21:50:54.246Z,99298.25
2022-12-22T21:54:26.576Z,99294.77
2022-12-22T21:57:56.175Z,99305.96
2022-12-22T22:01:23.793Z,99313.29
2022-12-22T22:04:54.998Z,99310.46
2022-12-22T22:08:23.599Z,99308.95
2022-12-22T22:12:09.486Z,99311.19
2022-12-22T22:15:36.468Z,99312.63
2022-12-22T22:19:04.214Z,99313.30
2022-12-22T22:22:32.412Z,99321.77
2022-12-22T22:26:02.105Z,99323.98
2022-12-22T22:29:29.864Z,99321.77
2022-12-22T22:32:58.197Z,99323.16
2022-12-22T22:36:25.013Z,99325.66
2022-12-22T22:40:12.898Z,99327.80
2022-12-22T22:43:44.002Z,99325.80
2022-12-22T22:47:11.580Z,99332.20
2022-12-22T22:50:41.461Z,99336.33
2022-12-22T22:54:18.388Z,99336.38
2022-12-22T22:57:45.456Z,99340.02
2022-12-22T23:01:13.559Z,99335.42
2022-12-22T23:04:39.868Z,99345.84
2022-12-22T23:08:07.743Z,99346.80
2022-12-22T23:11:34.747Z,99349.31
2022-12-22T23:15:02.393Z,99354.84
2022-12-22T23:18:31.829Z,99364.59
2022-12-22T23:21:59.326Z,99364.98
2022-12-22T23:25:26.081Z,99370.12
2022-12-22T23:28:56.425Z,99364.23
2022-12-22T23:32:25.817Z,99363.48
2022-12-22T23:35:54.254Z,99360.05
2022-12-22T23:39:21.634Z,99363.59
2022-12-22T23:42:54.817Z,99362.02
2022-12-22T23:46:24.567Z,99359.65
2022-12-22T23:49:51.990Z,99359.07
2022-12-22T23:53:19.110Z,99362.30
2022-12-22T23:56:46.467Z,99363.20
